Time;durP1;ratioP1;P1;durP2;ratioP2;P2;SDS_P1;SDS_P2;PMS_P1;PMS_P2;Temp;Humidity;BMP_temperature;BMP_pressure;BME280_temperature;BME280_humidity;BME280_pressure;Samples;Min_cycle;Max_cycle;Signal;HPM_P1;HPM_P2
2022/09/19 00:00:27;;;;;;;;;;;13.70;99.90;;;;;;5075685;28;19908;-75
2022/09/19 00:02:54;;;;;;;;;;;13.80;99.90;;;;;;5074956;28;20004;-74
2022/09/19 00:05:19;;;;;;;;;;;13.70;99.90;;;;;;5074218;28;19909;-74
2022/09/19 00:07:47;;;;;;;;;;;13.70;99.90;;;;;;5075213;28;19915;-74
2022/09/19 00:10:12;;;;;;;;;;;13.70;99.90;;;;;;5074823;28;19991;-74
2022/09/19 00:12:38;;;;;;;;;;;13.70;99.90;;;;;;5075257;28;20349;-74
2022/09/19 00:15:04;;;;;;;;;;;13.70;99.90;;;;;;5074614;28;19913;-73
2022/09/19 00:17:30;;;;;;;;;;;13.70;99.90;;;;;;5075009;28;19920;-74
2022/09/19 00:19:55;;;;;;;;;;;13.80;99.90;;;;;;5074623;28;19915;-74
2022/09/19 00:22:21;;;;;;;;;;;13.70;99.90;;;;;;5074972;28;19912;-74
2022/09/19 00:24:48;;;;;;;;;;;13.80;99.90;;;;;;5075136;28;19912;-74
2022/09/19 00:27:15;;;;;;;;;;;13.80;99.90;;;;;;5074471;28;19912;-74
2022/09/19 00:29:42;;;;;;;;;;;13.80;99.90;;;;;;5074758;28;19912;-74
2022/09/19 00:32:12;;;;;;;;;;;13.80;99.90;;;;;;5074415;28;19912;-74
2022/09/19 00:34:41;;;;;;;;;;;13.80;99.90;;;;;;5074838;28;19913;-74
2022/09/19 00:37:07;;;;;;;;;;;13.80;99.90;;;;;;5074153;28;19974;-74
2022/09/19 00:39:33;;;;;;;;;;;13.70;99.90;;;;;;5074303;28;20370;-73
2022/09/19 00:41:59;;;;;;;;;;;13.70;99.90;;;;;;5074159;28;20341;-74
2022/09/19 00:44:24;;;;;;;;;;;13.70;99.90;;;;;;5074107;28;19920;-74
2022/09/19 00:46:52;;;;;;;;;;;13.70;99.90;;;;;;5074649;28;20372;-74
2022/09/19 00:49:19;;;;;;;;;;;13.70;99.90;;;;;;5074298;28;19908;-74
2022/09/19 00:51:46;;;;;;;;;;;13.70;99.90;;;;;;5075150;28;19955;-74
2022/09/19 00:54:14;;;;;;;;;;;13.70;99.90;;;;;;5074483;28;19909;-74
2022/09/19 00:56:42;;;;;;;;;;;13.70;99.90;;;;;;5075149;28;19913;-74
2022/09/19 00:59:08;;;;;;;;;;;13.80;99.90;;;;;;5074701;28;20255;-74
2022/09/19 01:01:34;;;;;;;;;;;13.80;99.90;;;;;;5075159;28;20251;-74
2022/09/19 01:04:01;;;;;;;;;;;13.80;99.90;;;;;;5074455;28;19930;-74
2022/09/19 01:06:34;;;;;;;;;;;13.80;99.90;;;;;;5075068;28;20061;-74
2022/09/19 01:09:02;;;;;;;;;;;13.80;99.90;;;;;;5074349;28;19908;-74
2022/09/19 01:11:39;;;;;;;;;;;13.80;99.90;;;;;;5073915;28;19909;-74
2022/09/19 01:14:11;;;;;;;;;;;13.80;99.90;;;;;;5074719;28;19931;-74
2022/09/19 01:16:41;;;;;;;;;;;13.80;99.90;;;;;;5075043;28;19913;-74
2022/09/19 01:19:16;;;;;;;;;;;13.90;99.90;;;;;;5074406;28;19948;-74
2022/09/19 01:21:50;;;;;;;;;;;13.80;99.90;;;;;;5074710;28;19909;-74
2022/09/19 01:24:37;;;;;;;;;;;13.80;99.90;;;;;;5074351;28;19975;-74
2022/09/19 01:27:14;;;;;;;;;;;13.80;99.90;;;;;;5074253;28;19916;-74
2022/09/19 01:29:45;;;;;;;;;;;13.80;99.90;;;;;;5074896;28;19975;-75
2022/09/19 01:32:13;;;;;;;;;;;13.90;99.90;;;;;;5074160;28;19916;-74
2022/09/19 01:34:42;;;;;;;;;;;13.90;99.90;;;;;;5074353;28;19919;-75
2022/09/19 01:37:12;;;;;;;;;;;13.90;99.90;;;;;;5074107;28;19912;-74
2022/09/19 01:39:39;;;;;;;;;;;13.90;99.90;;;;;;5074294;28;19915;-75
2022/09/19 01:42:05;;;;;;;;;;;13.90;99.90;;;;;;5074046;28;19908;-75
2022/09/19 01:44:31;;;;;;;;;;;13.90;99.90;;;;;;5074057;28;19926;-75
2022/09/19 01:47:16;;;;;;;;;;;13.90;99.90;;;;;;5073836;28;19912;-75
2022/09/19 01:49:49;;;;;;;;;;;13.80;99.90;;;;;;5073611;28;19912;-75
2022/09/19 01:52:24;;;;;;;;;;;13.90;99.90;;;;;;5073820;28;19919;-75
2022/09/19 01:54:57;;;;;;;;;;;13.80;99.90;;;;;;5074260;28;19913;-75
2022/09/19 01:57:31;;;;;;;;;;;13.80;99.90;;;;;;5074513;28;19919;-74
2022/09/19 02:00:12;;;;;;;;;;;13.80;99.90;;;;;;5074032;28;19913;-75
2022/09/19 02:02:57;;;;;;;;;;;13.90;99.90;;;;;;5072916;28;19909;-74
2022/09/19 02:05:35;;;;;;;;;;;13.80;99.90;;;;;;5072883;28;19966;-75
2022/09/19 02:08:01;;;;;;;;;;;13.90;99.90;;;;;;5073251;28;19908;-75
2022/09/19 02:10:30;;;;;;;;;;;13.90;99.90;;;;;;5073837;28;19919;-74
2022/09/19 02:12:56;;;;;;;;;;;13.80;99.90;;;;;;5073630;28;19908;-74
2022/09/19 02:15:25;;;;;;;;;;;13.90;99.90;;;;;;5073035;28;19916;-75
2022/09/19 02:17:55;;;;;;;;;;;13.80;99.90;;;;;;5073975;28;20011;-75
2022/09/19 02:20:24;;;;;;;;;;;13.80;99.90;;;;;;5073192;28;19908;-75
2022/09/19 02:22:53;;;;;;;;;;;13.80;99.90;;;;;;5073406;28;19955;-75
2022/09/19 02:25:21;;;;;;;;;;;13.80;99.90;;;;;;5073063;28;20028;-74
2022/09/19 02:27:52;;;;;;;;;;;13.80;99.90;;;;;;5073522;28;19920;-74
2022/09/19 02:30:20;;;;;;;;;;;13.80;99.90;;;;;;5071770;28;20055;-74
2022/09/19 02:32:49;;;;;;;;;;;13.80;99.90;;;;;;5073491;28;19908;-74
2022/09/19 02:35:32;;;;;;;;;;;13.80;99.90;;;;;;5072704;28;19912;-73
2022/09/19 02:38:02;;;;;;;;;;;13.80;99.90;;;;;;5073000;28;19919;-74
2022/09/19 02:40:40;;;;;;;;;;;13.80;99.90;;;;;;5072242;28;19916;-74
2022/09/19 02:43:24;;;;;;;;;;;13.80;99.90;;;;;;5072499;28;19917;-74
2022/09/19 02:46:02;;;;;;;;;;;13.80;99.90;;;;;;5073114;28;19974;-74
2022/09/19 02:48:28;;;;;;;;;;;13.70;99.90;;;;;;5073312;28;19954;-74
2022/09/19 02:51:06;;;;;;;;;;;13.80;99.90;;;;;;5073010;28;19916;-74
2022/09/19 02:53:42;;;;;;;;;;;13.70;99.90;;;;;;5073319;28;20239;-74
2022/09/19 02:56:13;;;;;;;;;;;13.70;99.90;;;;;;5072636;28;20356;-74
2022/09/19 02:58:47;;;;;;;;;;;13.70;99.90;;;;;;5073370;28;20251;-74
2022/09/19 03:01:16;;;;;;;;;;;13.70;99.90;;;;;;5072660;28;20358;-75
2022/09/19 03:06:37;;;;;;;;;;;13.70;99.90;;;;;;5073141;28;19916;-74
2022/09/19 03:09:04;;;;;;;;;;;13.70;99.90;;;;;;5072654;28;19995;-74
2022/09/19 03:11:32;;;;;;;;;;;13.70;99.90;;;;;;5073108;28;20003;-75
2022/09/19 03:13:59;;;;;;;;;;;13.70;99.90;;;;;;5073181;28;19909;-74
2022/09/19 03:16:35;;;;;;;;;;;13.60;99.90;;;;;;5072304;28;20023;-74
2022/09/19 03:19:02;;;;;;;;;;;13.60;99.90;;;;;;5071644;28;19961;-74
2022/09/19 03:21:27;;;;;;;;;;;13.70;99.90;;;;;;5072383;28;19955;-74
2022/09/19 03:23:58;;;;;;;;;;;13.60;99.90;;;;;;5072944;28;19956;-74
2022/09/19 03:26:30;;;;;;;;;;;13.60;99.90;;;;;;5072327;28;19905;-74
2022/09/19 03:28:56;;;;;;;;;;;13.70;99.90;;;;;;5072651;28;19908;-74
2022/09/19 03:31:22;;;;;;;;;;;13.60;99.90;;;;;;5072067;28;19909;-74
2022/09/19 03:33:49;;;;;;;;;;;13.60;99.90;;;;;;5072547;28;19909;-75
2022/09/19 03:36:15;;;;;;;;;;;13.60;99.90;;;;;;5071930;28;19916;-75
2022/09/19 03:38:44;;;;;;;;;;;13.60;99.90;;;;;;5072776;28;19919;-75
2022/09/19 03:41:10;;;;;;;;;;;13.60;99.90;;;;;;5071888;28;20388;-75
2022/09/19 03:43:36;;;;;;;;;;;13.60;99.90;;;;;;5072703;28;19912;-74
2022/09/19 03:46:01;;;;;;;;;;;13.60;99.90;;;;;;5072184;28;19955;-74
2022/09/19 03:48:27;;;;;;;;;;;13.60;99.90;;;;;;5071899;28;19916;-74
2022/09/19 03:50:53;;;;;;;;;;;13.60;99.90;;;;;;5072520;28;19915;-74
2022/09/19 03:53:20;;;;;;;;;;;13.60;99.90;;;;;;5072366;28;20345;-74
2022/09/19 03:55:45;;;;;;;;;;;13.60;99.90;;;;;;5072470;28;19954;-74
2022/09/19 03:58:11;;;;;;;;;;;13.50;99.90;;;;;;5072259;28;19912;-74
2022/09/19 04:00:37;;;;;;;;;;;13.60;99.90;;;;;;5072888;28;19909;-75
2022/09/19 04:03:02;;;;;;;;;;;13.60;99.90;;;;;;5072557;28;20247;-74
2022/09/19 04:05:28;;;;;;;;;;;13.60;99.90;;;;;;5071959;28;19909;-74
2022/09/19 04:07:54;;;;;;;;;;;13.60;99.90;;;;;;5071067;28;19908;-74
2022/09/19 04:10:20;;;;;;;;;;;13.60;99.90;;;;;;5071900;28;20293;-74
2022/09/19 04:12:48;;;;;;;;;;;13.50;99.90;;;;;;5072722;28;20025;-74
2022/09/19 04:15:14;;;;;;;;;;;13.50;99.90;;;;;;5071718;28;19960;-74
2022/09/19 04:17:40;;;;;;;;;;;13.50;99.90;;;;;;5072221;28;19958;-74
2022/09/19 04:20:05;;;;;;;;;;;13.50;99.90;;;;;;5072316;28;20384;-74
2022/09/19 04:22:31;;;;;;;;;;;13.50;99.90;;;;;;5071760;28;20001;-74
2022/09/19 04:24:57;;;;;;;;;;;13.50;99.90;;;;;;5071004;28;19992;-74
2022/09/19 04:27:22;;;;;;;;;;;13.40;99.90;;;;;;5071599;28;19908;-74
2022/09/19 04:29:48;;;;;;;;;;;13.40;99.90;;;;;;5074292;28;19908;-74
2022/09/19 04:32:15;;;;;;;;;;;13.40;99.90;;;;;;5075122;28;19912;-74
2022/09/19 04:34:43;;;;;;;;;;;13.40;99.90;;;;;;5075673;28;19912;-74
2022/09/19 04:37:09;;;;;;;;;;;13.40;99.90;;;;;;5075015;28;20372;-74
2022/09/19 04:39:34;;;;;;;;;;;13.40;99.90;;;;;;5075862;28;19908;-74
2022/09/19 04:42:01;;;;;;;;;;;13.30;99.90;;;;;;5075320;28;20277;-74
2022/09/19 04:44:29;;;;;;;;;;;13.30;99.90;;;;;;5074767;28;19925;-74
2022/09/19 04:46:55;;;;;;;;;;;13.30;99.90;;;;;;5075326;28;19909;-74
2022/09/19 04:49:20;;;;;;;;;;;13.30;99.90;;;;;;5073699;28;19915;-74
2022/09/19 04:51:46;;;;;;;;;;;13.20;99.90;;;;;;5075464;28;19916;-74
2022/09/19 04:54:14;;;;;;;;;;;13.20;99.90;;;;;;5073746;28;20737;-74
2022/09/19 04:56:44;;;;;;;;;;;13.20;99.90;;;;;;5075361;28;19920;-75
2022/09/19 04:59:09;;;;;;;;;;;13.10;99.90;;;;;;5074909;28;19908;-74
2022/09/19 05:01:35;;;;;;;;;;;13.10;99.90;;;;;;5075486;28;20254;-74
2022/09/19 05:04:03;;;;;;;;;;;13.00;99.90;;;;;;5075426;28;20272;-74
2022/09/19 05:06:30;;;;;;;;;;;13.00;99.90;;;;;;5074358;28;20510;-74
2022/09/19 05:08:57;;;;;;;;;;;13.00;99.90;;;;;;5075045;28;20365;-74
2022/09/19 05:11:23;;;;;;;;;;;13.00;99.90;;;;;;5074205;28;20308;-74
2022/09/19 05:13:49;;;;;;;;;;;13.00;99.90;;;;;;5075366;28;19908;-74
2022/09/19 05:16:15;;;;;;;;;;;12.90;99.90;;;;;;5074253;28;19916;-74
2022/09/19 05:18:41;;;;;;;;;;;12.90;99.90;;;;;;5075093;28;19912;-74
2022/09/19 05:21:08;;;;;;;;;;;12.90;99.90;;;;;;5075230;28;19977;-74
2022/09/19 05:23:36;;;;;;;;;;;12.90;99.90;;;;;;5074370;28;19908;-74
2022/09/19 05:26:03;;;;;;;;;;;12.80;99.90;;;;;;5074892;28;19916;-74
2022/09/19 05:28:28;;;;;;;;;;;12.80;99.90;;;;;;5074343;28;19997;-74
2022/09/19 05:30:55;;;;;;;;;;;12.80;99.90;;;;;;5074681;28;19955;-74
2022/09/19 05:33:26;;;;;;;;;;;12.80;99.90;;;;;;5074062;28;19916;-75
2022/09/19 05:35:53;;;;;;;;;;;12.80;99.90;;;;;;5074823;28;19935;-74
2022/09/19 05:38:18;;;;;;;;;;;12.70;99.90;;;;;;5073786;28;20069;-74
2022/09/19 05:40:44;;;;;;;;;;;12.80;99.90;;;;;;5073552;28;20404;-74
2022/09/19 05:43:10;;;;;;;;;;;12.70;99.90;;;;;;5074855;28;19908;-74
2022/09/19 05:45:37;;;;;;;;;;;12.70;99.90;;;;;;5073559;28;20262;-75
2022/09/19 05:48:04;;;;;;;;;;;12.80;99.90;;;;;;5074263;28;19912;-76
2022/09/19 05:50:30;;;;;;;;;;;12.80;99.90;;;;;;5073874;28;19941;-74
2022/09/19 05:55:40;;;;;;;;;;;12.80;99.90;;;;;;5074066;28;19920;-73
2022/09/19 05:58:06;;;;;;;;;;;12.70;99.90;;;;;;5074438;28;19912;-74
2022/09/19 06:00:32;;;;;;;;;;;12.80;99.90;;;;;;5073584;28;19908;-74
2022/09/19 06:03:00;;;;;;;;;;;12.70;99.90;;;;;;5074109;28;20367;-76
2022/09/19 06:05:27;;;;;;;;;;;12.80;99.90;;;;;;5073527;28;19919;-75
2022/09/19 06:07:56;;;;;;;;;;;12.80;99.90;;;;;;5073653;28;19908;-74
2022/09/19 06:10:23;;;;;;;;;;;12.80;99.90;;;;;;5071943;28;19908;-74
2022/09/19 06:12:48;;;;;;;;;;;12.90;99.90;;;;;;5073877;28;19909;-74
2022/09/19 06:15:14;;;;;;;;;;;12.90;99.90;;;;;;5073566;28;20350;-74
2022/09/19 06:17:40;;;;;;;;;;;12.90;99.90;;;;;;5072894;28;19958;-73
2022/09/19 06:20:06;;;;;;;;;;;12.90;99.90;;;;;;5073563;28;19913;-74
2022/09/19 06:22:31;;;;;;;;;;;12.90;99.90;;;;;;5073116;28;19940;-74
2022/09/19 06:24:57;;;;;;;;;;;12.90;99.90;;;;;;5073170;28;19962;-74
2022/09/19 06:27:23;;;;;;;;;;;12.90;99.90;;;;;;5072808;28;19916;-74
2022/09/19 06:29:48;;;;;;;;;;;12.90;99.90;;;;;;5073325;28;19955;-74
2022/09/19 06:32:14;;;;;;;;;;;13.00;99.90;;;;;;5073601;28;20307;-75
2022/09/19 06:34:40;;;;;;;;;;;13.00;99.90;;;;;;5072676;28;19920;-75
2022/09/19 06:37:05;;;;;;;;;;;13.00;99.90;;;;;;5073344;28;20464;-75
2022/09/19 06:39:31;;;;;;;;;;;13.10;99.90;;;;;;5072881;28;20254;-75
2022/09/19 06:41:57;;;;;;;;;;;13.00;99.90;;;;;;5072711;28;19912;-75
2022/09/19 06:44:23;;;;;;;;;;;13.10;99.90;;;;;;5071112;28;19926;-75
2022/09/19 06:46:48;;;;;;;;;;;13.10;99.90;;;;;;5073352;28;20011;-75
2022/09/19 06:49:14;;;;;;;;;;;13.10;99.90;;;;;;5073268;28;19908;-75
2022/09/19 06:51:39;;;;;;;;;;;13.20;99.90;;;;;;5071055;28;20460;-75
2022/09/19 06:54:05;;;;;;;;;;;13.20;99.90;;;;;;5073089;28;19997;-75
2022/09/19 06:56:30;;;;;;;;;;;13.20;99.90;;;;;;5072229;28;19916;-75
2022/09/19 06:58:56;;;;;;;;;;;13.20;99.90;;;;;;5073292;28;19919;-74
2022/09/19 07:01:22;;;;;;;;;;;13.20;99.90;;;;;;5072533;28;20357;-74
2022/09/19 07:03:48;;;;;;;;;;;13.20;99.90;;;;;;5072945;28;19909;-75
2022/09/19 07:06:13;;;;;;;;;;;13.30;99.90;;;;;;5072980;28;19909;-74
2022/09/19 07:08:39;;;;;;;;;;;13.30;99.90;;;;;;5070960;28;19908;-75
2022/09/19 07:11:05;;;;;;;;;;;13.40;99.90;;;;;;5072546;28;19908;-75
2022/09/19 07:13:30;;;;;;;;;;;13.40;99.90;;;;;;5072457;28;19909;-75
2022/09/19 07:16:02;;;;;;;;;;;13.50;99.90;;;;;;5072367;28;20019;-75
2022/09/19 07:18:28;;;;;;;;;;;13.50;99.90;;;;;;5072139;28;19913;-74
2022/09/19 07:20:53;;;;;;;;;;;13.60;99.90;;;;;;5072377;28;20368;-75
2022/09/19 07:23:19;;;;;;;;;;;13.60;99.90;;;;;;5072490;28;19991;-73
2022/09/19 07:25:45;;;;;;;;;;;13.60;99.90;;;;;;5072577;28;19916;-74
2022/09/19 07:28:11;;;;;;;;;;;13.70;99.90;;;;;;5072774;28;20284;-75
2022/09/19 07:30:38;;;;;;;;;;;13.80;99.90;;;;;;5071967;28;20004;-74
2022/09/19 07:33:05;;;;;;;;;;;13.80;99.90;;;;;;5072638;28;19909;-74
2022/09/19 07:35:33;;;;;;;;;;;13.80;99.90;;;;;;5072095;28;20008;-74
2022/09/19 07:37:58;;;;;;;;;;;13.80;99.90;;;;;;5072759;28;19955;-74
2022/09/19 07:40:24;;;;;;;;;;;13.90;99.90;;;;;;5071942;28;19962;-73
2022/09/19 07:42:53;;;;;;;;;;;13.90;99.90;;;;;;5073015;28;19909;-74
2022/09/19 07:45:18;;;;;;;;;;;13.90;99.90;;;;;;5072516;28;19920;-74
2022/09/19 07:47:44;;;;;;;;;;;14.00;99.90;;;;;;5071688;28;20265;-74
2022/09/19 07:50:14;;;;;;;;;;;14.00;99.90;;;;;;5072656;28;19909;-75
2022/09/19 07:52:40;;;;;;;;;;;14.00;99.90;;;;;;5072285;28;19912;-75
2022/09/19 07:55:06;;;;;;;;;;;14.00;99.90;;;;;;5072583;28;20311;-76
2022/09/19 07:57:32;;;;;;;;;;;14.00;99.90;;;;;;5071855;28;19920;-75
2022/09/19 07:59:58;;;;;;;;;;;14.00;99.90;;;;;;5072171;28;19909;-75
2022/09/19 08:02:23;;;;;;;;;;;14.10;99.90;;;;;;5072038;28;19995;-75
2022/09/19 08:04:49;;;;;;;;;;;14.00;99.90;;;;;;5073654;28;19908;-74
2022/09/19 08:07:15;;;;;;;;;;;14.00;99.90;;;;;;5076324;28;20353;-74
2022/09/19 08:09:40;;;;;;;;;;;14.10;99.90;;;;;;5075244;28;19909;-73
2022/09/19 08:12:07;;;;;;;;;;;14.10;99.90;;;;;;5074705;28;20268;-74
2022/09/19 08:14:32;;;;;;;;;;;14.20;99.90;;;;;;5075558;28;19913;-73
2022/09/19 08:16:58;;;;;;;;;;;14.20;99.90;;;;;;5075565;28;19912;-74
2022/09/19 08:19:24;;;;;;;;;;;14.20;99.90;;;;;;5075755;28;20328;-74
2022/09/19 08:21:50;;;;;;;;;;;14.30;99.90;;;;;;5074724;28;19995;-73
2022/09/19 08:24:16;;;;;;;;;;;14.40;99.90;;;;;;5075982;28;19908;-74
2022/09/19 08:26:42;;;;;;;;;;;14.50;99.90;;;;;;5075079;28;20273;-74
2022/09/19 08:29:08;;;;;;;;;;;14.50;99.90;;;;;;5075836;28;19909;-74
2022/09/19 08:31:33;;;;;;;;;;;14.60;99.90;;;;;;5075071;28;19909;-74
2022/09/19 08:34:00;;;;;;;;;;;14.70;99.90;;;;;;5075795;28;20299;-75
2022/09/19 08:36:25;;;;;;;;;;;14.70;99.90;;;;;;5074146;28;20334;-75
2022/09/19 08:38:51;;;;;;;;;;;14.80;99.90;;;;;;5075987;28;19913;-75
2022/09/19 08:41:33;;;;;;;;;;;14.90;99.90;;;;;;5057579;28;20013;-75
2022/09/19 08:44:03;;;;;;;;;;;14.90;99.90;;;;;;5075544;28;19984;-75
2022/09/19 08:46:35;;;;;;;;;;;14.90;99.90;;;;;;5075020;28;19920;-74
2022/09/19 08:49:04;;;;;;;;;;;15.10;99.90;;;;;;5075452;28;19956;-75
2022/09/19 08:51:32;;;;;;;;;;;15.10;99.90;;;;;;5075249;28;20251;-74
2022/09/19 08:54:17;;;;;;;;;;;15.20;99.90;;;;;;5075061;28;19908;-75
2022/09/19 08:56:43;;;;;;;;;;;15.30;99.90;;;;;;5074474;28;19916;-75
2022/09/19 08:59:12;;;;;;;;;;;15.30;99.90;;;;;;5074841;28;19909;-75
2022/09/19 09:01:39;;;;;;;;;;;15.40;99.90;;;;;;5074486;28;20315;-74
2022/09/19 09:04:16;;;;;;;;;;;15.40;99.90;;;;;;5075260;28;19916;-75
2022/09/19 09:07:00;;;;;;;;;;;15.50;99.90;;;;;;5074741;28;19909;-75
2022/09/19 09:09:55;;;;;;;;;;;15.50;99.90;;;;;;5075145;28;19942;-75
2022/09/19 09:12:36;;;;;;;;;;;15.60;99.90;;;;;;5074980;28;19934;-75
2022/09/19 09:15:04;;;;;;;;;;;15.50;99.90;;;;;;5074699;28;19916;-75
2022/09/19 09:17:42;;;;;;;;;;;15.60;99.90;;;;;;5074344;28;19913;-75
2022/09/19 09:20:18;;;;;;;;;;;15.50;99.90;;;;;;5075012;28;19909;-75
2022/09/19 09:22:46;;;;;;;;;;;15.60;99.90;;;;;;5074532;28;19908;-74
2022/09/19 09:25:14;;;;;;;;;;;15.70;99.90;;;;;;5074590;28;19908;-75
2022/09/19 09:27:50;;;;;;;;;;;15.80;99.90;;;;;;5072950;28;19909;-75
2022/09/19 09:30:17;;;;;;;;;;;15.80;99.90;;;;;;5074468;28;19931;-75
2022/09/19 09:32:51;;;;;;;;;;;15.90;99.90;;;;;;5074057;28;19962;-75
2022/09/19 09:35:18;;;;;;;;;;;16.00;99.90;;;;;;5074696;28;19920;-75
2022/09/19 09:38:01;;;;;;;;;;;16.10;99.90;;;;;;5074092;28;20007;-75
2022/09/19 09:43:26;;;;;;;;;;;16.20;99.90;;;;;;5074192;28;19916;-75
2022/09/19 09:45:52;;;;;;;;;;;16.30;99.90;;;;;;5073974;28;20458;-75
2022/09/19 09:48:26;;;;;;;;;;;16.40;99.90;;;;;;5074394;28;19909;-74
2022/09/19 09:51:10;;;;;;;;;;;16.40;99.90;;;;;;5073708;28;19935;-74
2022/09/19 09:53:54;;;;;;;;;;;16.50;99.90;;;;;;5073781;28;19919;-74
2022/09/19 09:56:41;;;;;;;;;;;16.40;99.90;;;;;;5074199;28;19912;-75
2022/09/19 10:05:09;;;;;;;;;;;16.60;99.90;;;;;;5073922;28;19919;-75
2022/09/19 10:07:44;;;;;;;;;;;16.70;99.90;;;;;;5073456;28;19960;-74
2022/09/19 10:10:13;;;;;;;;;;;16.80;99.90;;;;;;5072677;28;19909;-74
2022/09/19 10:12:43;;;;;;;;;;;16.80;99.90;;;;;;5073038;28;19991;-73
2022/09/19 10:15:17;;;;;;;;;;;17.00;99.90;;;;;;5073713;28;19967;-74
2022/09/19 10:17:46;;;;;;;;;;;17.00;99.90;;;;;;5072423;28;19912;-74
2022/09/19 10:20:19;;;;;;;;;;;17.10;99.90;;;;;;5073053;28;19912;-74
2022/09/19 10:22:45;;;;;;;;;;;17.20;99.90;;;;;;5073195;28;19987;-74
2022/09/19 10:25:12;;;;;;;;;;;17.20;99.90;;;;;;5073634;28;19961;-75
2022/09/19 10:27:40;;;;;;;;;;;17.20;99.90;;;;;;5072500;28;19963;-74
2022/09/19 10:30:19;;;;;;;;;;;17.30;99.90;;;;;;5073476;28;19908;-74
2022/09/19 10:32:46;;;;;;;;;;;17.30;99.90;;;;;;5071463;28;19909;-74
2022/09/19 10:35:30;;;;;;;;;;;17.40;99.90;;;;;;5072123;28;20357;-74
2022/09/19 10:38:12;;;;;;;;;;;17.40;99.90;;;;;;5072857;28;19991;-74
2022/09/19 10:40:41;;;;;;;;;;;17.40;99.90;;;;;;5072774;28;19909;-74
2022/09/19 10:43:21;;;;;;;;;;;17.30;99.90;;;;;;5072557;28;19919;-74
2022/09/19 10:45:47;;;;;;;;;;;17.20;99.90;;;;;;5071818;28;19925;-74
2022/09/19 10:48:26;;;;;;;;;;;17.20;99.90;;;;;;5072540;28;19915;-75
2022/09/19 10:50:53;;;;;;;;;;;17.20;99.90;;;;;;5072198;28;19908;-76
2022/09/19 10:53:22;;;;;;;;;;;17.30;99.90;;;;;;5069985;28;19962;-75
2022/09/19 10:55:48;;;;;;;;;;;17.40;99.90;;;;;;5062297;28;20341;-75
2022/09/19 10:58:18;;;;;;;;;;;17.50;99.90;;;;;;5051483;28;19996;-75
2022/09/19 11:00:51;;;;;;;;;;;17.50;99.90;;;;;;5052033;28;19995;-75
2022/09/19 11:03:25;;;;;;;;;;;17.60;99.90;;;;;;5052153;28;20423;-75
2022/09/19 11:06:12;;;;;;;;;;;17.50;99.90;;;;;;5051631;28;19909;-75
2022/09/19 11:08:44;;;;;;;;;;;17.60;99.90;;;;;;5052003;28;20354;-76
2022/09/19 11:11:25;;;;;;;;;;;17.80;99.90;;;;;;5052327;28;19924;-75
2022/09/19 11:14:09;;;;;;;;;;;17.70;99.90;;;;;;5051669;28;20365;-75
2022/09/19 11:16:45;;;;;;;;;;;17.70;99.90;;;;;;5051658;28;19921;-75
2022/09/19 11:19:30;;;;;;;;;;;17.80;99.90;;;;;;5052140;28;19959;-75
2022/09/19 11:21:58;;;;;;;;;;;17.90;99.90;;;;;;5051575;28;19971;-75
2022/09/19 11:24:46;;;;;;;;;;;18.00;99.90;;;;;;5052241;28;19916;-75
2022/09/19 11:27:11;;;;;;;;;;;18.00;99.90;;;;;;5052215;28;19909;-76
2022/09/19 11:29:55;;;;;;;;;;;18.10;99.90;;;;;;5051226;28;20047;-76
2022/09/19 11:32:28;;;;;;;;;;;18.10;99.90;;;;;;5052108;28;19908;-76
2022/09/19 11:34:54;;;;;;;;;;;18.20;99.90;;;;;;5051486;28;20511;-75
2022/09/19 11:37:21;;;;;;;;;;;18.20;99.90;;;;;;5050410;28;19912;-75
2022/09/19 11:39:48;;;;;;;;;;;18.10;99.90;;;;;;5054075;28;20350;-75
2022/09/19 11:42:17;;;;;;;;;;;18.30;99.90;;;;;;5056316;28;20288;-75
2022/09/19 11:44:43;;;;;;;;;;;18.30;99.90;;;;;;5055196;28;20304;-75
2022/09/19 11:47:22;;;;;;;;;;;18.30;99.90;;;;;;5056039;28;19908;-75
2022/09/19 11:50:04;;;;;;;;;;;18.30;99.90;;;;;;5054969;28;20289;-75
2022/09/19 11:52:56;;;;;;;;;;;18.30;99.90;;;;;;5055959;28;19908;-76
2022/09/19 11:55:27;;;;;;;;;;;18.30;99.90;;;;;;5056198;28;19947;-75
2022/09/19 11:57:54;;;;;;;;;;;18.20;99.90;;;;;;5055002;28;19913;-75
2022/09/19 12:00:20;;;;;;;;;;;18.20;99.90;;;;;;5055791;28;19916;-75
2022/09/19 12:03:05;;;;;;;;;;;18.20;99.90;;;;;;5055328;28;19916;-75
2022/09/19 12:05:40;;;;;;;;;;;18.10;99.90;;;;;;5055638;28;19913;-75
2022/09/19 12:08:13;;;;;;;;;;;18.20;99.90;;;;;;5054727;28;19909;-75
2022/09/19 12:10:48;;;;;;;;;;;18.30;99.90;;;;;;5055105;28;19909;-75
2022/09/19 12:13:18;;;;;;;;;;;18.40;99.90;;;;;;5055580;28;19916;-76
2022/09/19 12:15:48;;;;;;;;;;;18.30;99.90;;;;;;5054835;28;19947;-75
2022/09/19 12:18:17;;;;;;;;;;;18.20;99.90;;;;;;5055238;28;19934;-75
2022/09/19 12:20:48;;;;;;;;;;;18.20;99.90;;;;;;5054689;28;19916;-75
2022/09/19 12:26:04;;;;;;;;;;;18.20;99.90;;;;;;5055349;28;20316;-76
2022/09/19 12:28:34;;;;;;;;;;;18.20;99.90;;;;;;5055496;28;19912;-76
2022/09/19 12:31:02;;;;;;;;;;;18.30;99.90;;;;;;5054792;28;20015;-75
2022/09/19 12:33:33;;;;;;;;;;;18.30;99.90;;;;;;5055494;28;19916;-74
2022/09/19 12:36:06;;;;;;;;;;;18.30;99.90;;;;;;5054029;28;20015;-75
2022/09/19 12:38:31;;;;;;;;;;;18.40;99.90;;;;;;5055249;28;19919;-75
2022/09/19 12:41:24;;;;;;;;;;;18.30;99.90;;;;;;5054222;28;19909;-74
2022/09/19 12:43:54;;;;;;;;;;;18.40;99.90;;;;;;5079232;28;19959;-74
2022/09/19 12:46:20;;;;;;;;;;;18.40;99.90;;;;;;5055148;28;19921;-75
2022/09/19 12:49:02;;;;;;;;;;;18.40;99.90;;;;;;5054760;28;20265;-75
2022/09/19 12:51:33;;;;;;;;;;;18.30;99.90;;;;;;5054161;28;20465;-75
2022/09/19 12:54:05;;;;;;;;;;;18.40;99.90;;;;;;5054375;28;19920;-74
2022/09/19 12:56:32;;;;;;;;;;;18.40;99.90;;;;;;5054594;28;19920;-75
2022/09/19 12:59:22;;;;;;;;;;;18.40;99.90;;;;;;5054094;28;19913;-75
2022/09/19 13:02:03;;;;;;;;;;;18.30;99.90;;;;;;5053879;28;20312;-75
2022/09/19 13:04:44;;;;;;;;;;;18.40;99.90;;;;;;5054521;28;19913;-76
2022/09/19 13:07:18;;;;;;;;;;;18.30;99.90;;;;;;5054552;28;19916;-75
2022/09/19 13:09:52;;;;;;;;;;;18.40;99.90;;;;;;5054024;28;19932;-75
2022/09/19 13:12:21;;;;;;;;;;;18.40;99.90;;;;;;5070054;28;19940;-75
2022/09/19 13:14:53;;;;;;;;;;;18.50;99.90;;;;;;5053955;28;19917;-76
2022/09/19 13:25:44;;;;;;;;;;;18.50;99.90;;;;;;5081252;28;19924;-75
2022/09/19 13:28:19;;;;;;;;;;;18.60;99.90;;;;;;5054108;28;19909;-74
2022/09/19 13:30:51;;;;;;;;;;;18.50;99.90;;;;;;5053690;28;19908;-76
2022/09/19 13:33:22;;;;;;;;;;;18.50;99.90;;;;;;5054233;28;19966;-76
2022/09/19 13:35:51;;;;;;;;;;;18.50;99.90;;;;;;5053182;28;19940;-76
2022/09/19 13:38:25;;;;;;;;;;;18.50;99.90;;;;;;5054034;28;19916;-76
2022/09/19 13:40:57;;;;;;;;;;;18.50;99.90;;;;;;5053658;28;19908;-75
2022/09/19 13:43:41;;;;;;;;;;;18.40;99.90;;;;;;5053995;28;20346;-75
2022/09/19 13:46:24;;;;;;;;;;;18.40;99.90;;;;;;5054063;28;19947;-74
2022/09/19 13:48:52;;;;;;;;;;;18.40;99.90;;;;;;5053067;28;19954;-76
2022/09/19 13:51:37;;;;;;;;;;;18.30;99.90;;;;;;5054072;28;19909;-75
2022/09/19 13:54:42;;;;;;;;;;;18.30;99.90;;;;;;5053247;28;19915;-75
2022/09/19 13:57:13;;;;;;;;;;;18.30;99.90;;;;;;5042343;28;19962;-75
2022/09/19 13:59:39;;;;;;;;;;;18.30;99.90;;;;;;5053443;28;19909;-74
2022/09/19 14:02:04;;;;;;;;;;;18.30;99.90;;;;;;5052716;28;19909;-75
2022/09/19 14:05:10;;;;;;;;;;;18.30;99.90;;;;;;5053163;28;20366;-75
2022/09/19 14:07:38;;;;;;;;;;;18.30;99.90;;;;;;5030732;28;19945;-75
2022/09/19 14:10:06;;;;;;;;;;;18.30;99.90;;;;;;5049267;28;20419;-76
2022/09/19 14:12:45;;;;;;;;;;;18.30;99.90;;;;;;5053339;28;19913;-76
2022/09/19 14:15:27;;;;;;;;;;;18.40;99.90;;;;;;5053232;28;19935;-76
2022/09/19 14:18:20;;;;;;;;;;;18.30;99.90;;;;;;5052573;28;20335;-76
2022/09/19 14:20:54;;;;;;;;;;;18.30;99.90;;;;;;5052653;28;19910;-75
2022/09/19 14:23:25;;;;;;;;;;;18.30;99.90;;;;;;5053104;28;19909;-76
2022/09/19 14:26:20;;;;;;;;;;;18.40;99.90;;;;;;5051401;28;20274;-75
2022/09/19 14:28:57;;;;;;;;;;;18.40;99.90;;;;;;5047292;28;20377;-75
2022/09/19 14:31:41;;;;;;;;;;;18.40;99.90;;;;;;5053119;28;19909;-75
2022/09/19 14:34:16;;;;;;;;;;;18.60;99.90;;;;;;5053000;28;20022;-76
2022/09/19 14:36:58;;;;;;;;;;;18.60;99.90;;;;;;5052420;28;19913;-74
2022/09/19 14:39:27;;;;;;;;;;;18.70;99.90;;;;;;5053093;28;19912;-76
2022/09/19 14:42:28;;;;;;;;;;;18.60;99.90;;;;;;5052681;28;19909;-76
2022/09/19 14:45:12;;;;;;;;;;;18.70;99.90;;;;;;5083627;28;20007;-75
2022/09/19 14:47:40;;;;;;;;;;;18.70;99.90;;;;;;5053277;28;20006;-75
2022/09/19 14:50:18;;;;;;;;;;;18.60;99.90;;;;;;5052811;28;19962;-75
2022/09/19 14:52:49;;;;;;;;;;;18.70;99.90;;;;;;5052039;28;19909;-75
2022/09/19 14:55:16;;;;;;;;;;;18.60;99.90;;;;;;5052431;28;19916;-75
2022/09/19 14:57:51;;;;;;;;;;;18.70;99.90;;;;;;5052134;28;20015;-75
2022/09/19 15:00:20;;;;;;;;;;;18.70;99.90;;;;;;5052590;28;19913;-75